Terminal Aerodrome Forecast
Issued by NWS

Home | Current Version | Previous Version | Text Only | Print | Product List | Glossary On
Versions: 1 2 3 4 5 6 7 8 9 10 11 12 13 14
000
FTUS42 TJSJ 310500
TAFNCM
TAF
TNCM 310540Z 3106/0106 10007KT P6SM VCSH SCT020
     FM311330 12012KT P6SM FEW022 SCT040
     FM312300 09006KT P6SM SCT022=

USA.gov is the U.S. government's official web portal to all federal, state and local government web resources and services.